Terminal Aerodrome Forecast
Issued by NWS

Current Version | Previous Version | Graphics & Text | Print | Product List | Glossary On
Versions: 1 2 3 4 5 6 7 8 9 10 11 12 13 14 15 16 17 18 19 20 21 22 23 24 25 26 27 28 29 30
000
FTUS41 KRLX 191400 AAA
TAFCKB
TAF AMD
KCKB 191401Z 1914/2012 00000KT 2SM BR BKN004
     FM191600 00000KT 4SM BR BKN015
     FM191700 00000KT 6SM BR BKN025
     FM191800 00000KT P6SM BKN035
     FM200400 00000KT 4SM -SHRA BR VCTS OVC040CB
     FM200700 00000KT 3SM SHRA BR VCTS OVC040CB
     FM201100 00000KT 1SM BR VCTS BKN003 OVC035CB=

USA.gov is the U.S. government's official web portal to all federal, state and local government web resources and services.